createdAt,value
2022-10-05T05:57:17.306Z,101322.28
2022-10-05T06:00:07.287Z,101320.88
2022-10-05T06:02:58.743Z,101319.28
2022-10-05T06:05:44.049Z,101324.38
2022-10-05T06:08:33.225Z,101327.66
2022-10-05T06:11:24.268Z,101321.50
2022-10-05T06:14:10.334Z,101317.19
2022-10-05T06:16:54.093Z,101323.28
2022-10-05T06:19:32.812Z,101328.34
2022-10-05T06:22:19.511Z,101318.78
2022-10-05T06:25:10.327Z,101306.84
2022-10-05T06:28:06.672Z,101293.19
2022-10-05T06:31:07.405Z,101301.81
2022-10-05T06:33:53.497Z,101303.28
2022-10-05T06:36:51.566Z,101309.34
2022-10-05T06:39:55.460Z,101307.66
2022-10-05T06:42:50.225Z,101303.66
2022-10-05T06:46:07.596Z,101322.22
2022-10-05T06:49:23.055Z,101312.09
2022-10-05T06:52:28.636Z,101327.19
2022-10-05T06:55:19.615Z,101324.06
2022-10-05T06:58:26.787Z,101314.16
2022-10-05T07:01:16.867Z,101320.25
2022-10-05T07:04:18.518Z,101327.63
2022-10-05T07:07:01.156Z,101332.84
2022-10-05T07:09:51.679Z,101338.78
2022-10-05T07:12:47.346Z,101326.97
2022-10-05T07:15:43.839Z,101334.69
2022-10-05T07:19:03.348Z,101325.53
2022-10-05T07:21:49.276Z,101319.97
2022-10-05T07:24:36.700Z,101341.31
2022-10-05T07:27:21.089Z,101347.22
2022-10-05T07:30:05.250Z,101334.41
2022-10-05T07:33:03.259Z,101329.72
2022-10-05T07:36:05.468Z,101314.53
2022-10-05T07:38:49.367Z,101325.13
2022-10-05T07:41:35.359Z,101318.78
2022-10-05T07:44:22.950Z,101305.97
2022-10-05T07:47:08.142Z,101293.72
2022-10-05T07:49:57.105Z,101299.56
2022-10-05T07:52:42.480Z,101306.69
2022-10-05T07:55:25.863Z,101301.00
2022-10-05T07:58:17.349Z,101304.19
2022-10-05T08:01:11.521Z,101303.38
2022-10-05T08:04:00.125Z,101295.75
2022-10-05T08:06:51.191Z,101308.09
2022-10-05T08:09:46.096Z,101304.34
2022-10-05T08:12:38.323Z,101294.44
2022-10-05T08:15:20.899Z,101308.34
2022-10-05T08:18:03.290Z,101308.72
2022-10-05T08:20:48.792Z,101311.88
2022-10-05T08:23:31.535Z,101303.66
2022-10-05T08:26:25.595Z,101318.44
2022-10-05T08:29:16.954Z,101325.97
2022-10-05T08:31:59.287Z,101332.66
2022-10-05T08:34:49.133Z,101326.94
2022-10-05T08:37:31.004Z,101328.66
2022-10-05T08:40:42.440Z,101329.84
2022-10-05T08:43:47.950Z,101325.72
2022-10-05T08:47:07.430Z,101322.78
2022-10-05T08:50:22.201Z,101333.44
2022-10-05T08:53:41.309Z,101340.44
2022-10-05T08:56:36.112Z,101327.81
2022-10-05T09:00:10.732Z,101318.84
2022-10-05T09:03:36.460Z,101314.56
2022-10-05T09:06:36.629Z,101311.34
2022-10-05T09:10:01.502Z,101297.66
2022-10-05T09:13:35.216Z,101297.50
2022-10-05T09:16:53.429Z,101290.44
2022-10-05T09:20:27.540Z,101301.44
2022-10-05T09:23:24.677Z,101298.59
2022-10-05T09:26:10.071Z,101296.03
2022-10-05T09:29:08.819Z,101303.09
2022-10-05T09:32:16.246Z,101307.06
2022-10-05T09:35:28.700Z,101311.03
2022-10-05T09:38:25.158Z,101301.78
2022-10-05T09:41:45.936Z,101296.50
2022-10-05T09:45:07.999Z,101317.09
2022-10-05T09:48:20.550Z,101307.72
2022-10-05T09:52:06.799Z,101311.28
2022-10-05T09:55:25.917Z,101323.25
2022-10-05T09:58:38.502Z,101317.59
2022-10-05T10:01:38.555Z,101307.81
2022-10-05T10:04:51.172Z,101325.03
2022-10-05T10:08:10.418Z,101313.44
2022-10-05T10:11:04.890Z,101308.38
2022-10-05T10:14:30.180Z,101302.72
2022-10-05T10:17:37.731Z,101307.56
2022-10-05T10:20:41.168Z,101298.56
2022-10-05T10:23:39.147Z,101299.72
2022-10-05T10:27:01.630Z,101296.28
2022-10-05T10:30:33.174Z,101293.09
2022-10-05T10:33:51.400Z,101286.47
2022-10-05T10:36:56.152Z,101288.34
2022-10-05T10:39:53.757Z,101294.69
2022-10-05T10:42:45.200Z,101286.50
2022-10-05T10:45:37.120Z,101282.16
2022-10-05T10:48:52.428Z,101272.59
2022-10-05T10:52:05.192Z,101282.75
2022-10-05T10:55:22.137Z,101268.78
2022-10-05T10:58:48.424Z,101278.41
2022-10-05T11:01:38.890Z,101277.25
2022-10-05T11:04:54.685Z,101269.31
2022-10-05T11:08:30.874Z,101267.06
2022-10-05T11:11:44.475Z,101266.25
2022-10-05T11:14:57.553Z,101267.63
2022-10-05T11:18:08.563Z,101268.59
2022-10-05T11:21:34.592Z,101272.38
2022-10-05T11:24:52.724Z,101266.75
2022-10-05T11:28:03.327Z,101276.06
2022-10-05T11:31:30.250Z,101275.78
2022-10-05T11:35:02.044Z,101275.19
2022-10-05T11:38:07.073Z,101268.88
2022-10-05T11:41:19.394Z,101260.22
2022-10-05T11:44:48.185Z,101263.34
2022-10-05T11:47:31.265Z,101265.59
2022-10-05T11:50:17.304Z,101269.69
2022-10-05T11:53:02.158Z,101268.97
2022-10-05T11:55:45.904Z,101259.09
2022-10-05T11:58:32.587Z,101266.59
2022-10-05T12:01:20.475Z,101260.47
2022-10-05T12:04:12.474Z,101257.38
2022-10-05T12:07:09.044Z,101274.56
2022-10-05T12:10:22.050Z,101268.09
2022-10-05T12:13:22.297Z,101263.84
2022-10-05T12:16:09.201Z,101270.34
2022-10-05T12:19:00.345Z,101269.25
2022-10-05T12:21:44.897Z,101275.75
2022-10-05T12:24:30.894Z,101269.25
2022-10-05T12:27:18.246Z,101273.03
2022-10-05T12:30:03.562Z,101271.19
2022-10-05T12:32:56.950Z,101266.13
2022-10-05T12:35:49.300Z,101265.81
2022-10-05T12:38:32.031Z,101257.38
2022-10-05T12:41:21.704Z,101257.38
2022-10-05T12:44:17.128Z,101265.53
2022-10-05T12:47:07.534Z,101267.38
2022-10-05T12:50:06.153Z,101275.84
2022-10-05T12:53:05.761Z,101277.94
2022-10-05T12:55:52.387Z,101271.69
2022-10-05T12:58:41.409Z,101276.53
2022-10-05T13:01:34.581Z,101275.78
2022-10-05T13:04:27.155Z,101266.06
2022-10-05T13:07:48.644Z,101267.22
2022-10-05T13:10:36.744Z,101258.09
2022-10-05T13:13:34.016Z,101257.50
2022-10-05T13:16:31.213Z,101253.28
2022-10-05T13:19:26.037Z,101251.75
2022-10-05T13:22:30.804Z,101253.44
2022-10-05T13:25:23.842Z,101252.44
2022-10-05T13:28:20.526Z,101245.00
2022-10-05T13:31:06.439Z,101245.91
2022-10-05T13:34:01.320Z,101240.78
2022-10-05T13:36:56.295Z,101231.44
2022-10-05T13:39:59.933Z,101239.13
2022-10-05T13:42:45.051Z,101233.34
2022-10-05T13:45:26.344Z,101236.59
2022-10-05T13:48:24.612Z,101226.66
2022-10-05T13:51:10.819Z,101212.84
2022-10-05T13:53:53.221Z,101225.84
2022-10-05T13:56:37.126Z,101221.91
2022-10-05T13:59:28.231Z,101222.38
2022-10-05T14:02:11.904Z,101224.53
2022-10-05T14:04:52.102Z,101219.69
2022-10-05T14:07:35.408Z,101242.31
2022-10-05T14:10:18.761Z,101235.75
2022-10-05T14:12:59.247Z,101238.25
2022-10-05T14:15:42.133Z,101241.09
2022-10-05T14:18:28.879Z,101234.66
2022-10-05T14:21:19.130Z,101242.53
2022-10-05T14:23:56.793Z,101241.28
2022-10-05T14:26:39.136Z,101229.00
2022-10-05T14:29:29.669Z,101222.97
2022-10-05T14:32:18.977Z,101231.91
2022-10-05T14:35:16.967Z,101242.69
2022-10-05T14:38:01.044Z,101238.75
2022-10-05T14:40:40.625Z,101227.75
2022-10-05T14:43:23.603Z,101236.53
2022-10-05T14:46:05.678Z,101232.47
2022-10-05T14:48:47.994Z,101235.44
2022-10-05T14:51:32.203Z,101232.47
2022-10-05T14:54:32.711Z,101232.34
2022-10-05T14:57:20.303Z,101237.13
2022-10-05T15:00:13.532Z,101237.13
2022-10-05T15:03:11.102Z,101239.13
2022-10-05T15:05:55.071Z,101235.75
2022-10-05T15:08:56.134Z,101237.72
2022-10-05T15:11:44.504Z,101242.25
2022-10-05T15:14:27.373Z,101240.97
2022-10-05T15:17:07.906Z,101235.50
2022-10-05T15:19:59.724Z,101248.47
2022-10-05T15:22:49.986Z,101240.00
2022-10-05T15:25:33.154Z,101236.59
2022-10-05T15:28:24.720Z,101239.28
2022-10-05T15:31:07.121Z,101237.47
2022-10-05T15:33:54.228Z,101230.66
2022-10-05T15:36:43.370Z,101234.91
2022-10-05T15:39:33.074Z,101225.03
2022-10-05T15:42:15.787Z,101219.41
2022-10-05T15:45:06.625Z,101228.41
2022-10-05T15:47:56.516Z,101230.66
2022-10-05T15:50:39.405Z,101230.38
2022-10-05T15:53:26.356Z,101227.00
2022-10-05T15:56:09.944Z,101227.28
2022-10-05T15:59:00.478Z,101229.78
2022-10-05T16:01:50.333Z,101228.09
2022-10-05T16:04:43.256Z,101230.63
2022-10-05T16:07:43.755Z,101235.97
2022-10-05T16:10:26.422Z,101233.72
2022-10-05T16:13:22.423Z,101230.03
2022-10-05T16:16:24.236Z,101231.00
2022-10-05T16:19:10.306Z,101224.25
2022-10-05T16:21:58.350Z,101223.81
2022-10-05T16:25:02.114Z,101221.38
2022-10-05T16:27:56.105Z,101226.88
2022-10-05T16:30:42.091Z,101226.31
2022-10-05T16:33:29.590Z,101224.88
2022-10-05T16:36:16.983Z,101228.75
2022-10-05T16:39:02.922Z,101220.03
2022-10-05T16:41:51.774Z,101228.63
2022-10-05T16:44:42.985Z,101221.69
2022-10-05T16:47:45.873Z,101225.59
2022-10-05T16:50:30.900Z,101226.75
2022-10-05T16:53:23.350Z,101232.63
2022-10-05T16:56:05.454Z,101233.59
2022-10-05T16:59:01.275Z,101233.59
2022-10-05T17:01:56.583Z,101232.06
2022-10-05T17:04:49.845Z,101236.81
2022-10-05T17:07:51.265Z,101227.38
2022-10-05T17:10:56.599Z,101233.94
2022-10-05T17:14:06.653Z,101234.47
2022-10-05T17:17:04.227Z,101234.88
2022-10-05T17:19:59.061Z,101237.22
2022-10-05T17:22:40.863Z,101235.78
2022-10-05T17:25:24.629Z,101226.47
2022-10-05T17:28:25.187Z,101232.91
2022-10-05T17:31:19.895Z,101241.94
2022-10-05T17:34:29.829Z,101241.47
2022-10-05T17:37:35.873Z,101241.00
2022-10-05T17:40:38.355Z,101245.88
2022-10-05T17:43:31.056Z,101251.63
2022-10-05T17:46:09.377Z,101248.34
